Time;durP1;ratioP1;P1;durP2;ratioP2;P2;SDS_P1;SDS_P2;PMS_P1;PMS_P2;Temp;Humidity;BMP_temperature;BMP_pressure;BME280_temperature;BME280_humidity;BME280_pressure;Samples;Min_cycle;Max_cycle;Signal;HPM_P1;HPM_P2
2022/11/06 00:02:14;;;;;;;9.85;4.93;;;;;;;8.29;85.71;101423.19;5024150;28;20050;-73
2022/11/06 00:04:47;;;;;;;7.88;4.88;;;;;;;8.30;85.88;101419.66;5024897;28;20471;-72
2022/11/06 00:07:14;;;;;;;8.35;4.82;;;;;;;8.29;85.86;101412.66;5030973;28;20042;-73
2022/11/06 00:09:41;;;;;;;9.15;4.60;;;;;;;8.27;85.89;101406.56;5039041;28;20427;-74
2022/11/06 00:12:09;;;;;;;8.48;4.70;;;;;;;8.26;85.91;101407.44;5028349;28;20096;-74
2022/11/06 00:14:36;;;;;;;10.90;4.43;;;;;;;8.23;85.97;101403.09;5027412;28;20050;-75
2022/11/06 00:17:03;;;;;;;9.60;4.85;;;;;;;8.22;85.97;101390.84;5030212;28;20042;-76
2022/11/06 00:19:30;;;;;;;10.63;4.68;;;;;;;8.22;85.96;101388.22;5019310;28;20120;-75
2022/11/06 00:21:57;;;;;;;10.23;4.72;;;;;;;8.21;85.98;101383.84;5025910;28;20033;-76
2022/11/06 00:24:24;;;;;;;10.02;4.40;;;;;;;8.21;86.00;101379.50;5029944;28;20045;-76
2022/11/06 00:26:51;;;;;;;8.98;4.28;;;;;;;8.19;85.96;101397.00;5029755;28;20038;-76
2022/11/06 00:29:20;;;;;;;9.60;3.60;;;;;;;8.18;86.06;101404.91;5032249;28;20141;-76
2022/11/06 00:31:49;;;;;;;8.57;4.22;;;;;;;8.18;86.19;101399.66;5025454;28;20046;-76
2022/11/06 00:34:17;;;;;;;9.48;3.70;;;;;;;8.17;86.20;101398.78;5028134;28;20052;-76
2022/11/06 00:36:44;;;;;;;7.43;3.80;;;;;;;8.17;86.06;101408.44;5021757;28;20119;-76
2022/11/06 00:39:11;;;;;;;9.23;3.33;;;;;;;8.15;86.19;101413.69;5019954;28;20136;-77
2022/11/06 00:41:39;;;;;;;7.38;3.63;;;;;;;8.16;86.00;101411.94;5045764;28;20066;-73
2022/11/06 00:44:09;;;;;;;8.55;4.07;;;;;;;8.17;86.17;101413.69;5030189;28;20495;-73
2022/11/06 00:46:36;;;;;;;8.25;3.55;;;;;;;8.11;86.06;101401.50;5027186;28;20050;-73
2022/11/06 00:49:04;;;;;;;8.73;3.78;;;;;;;8.10;86.07;101405.00;5028691;28;20049;-73
2022/11/06 00:51:38;;;;;;;8.68;3.65;;;;;;;8.09;86.27;101398.84;5035118;28;20046;-74
2022/11/06 00:54:09;;;;;;;9.85;3.35;;;;;;;8.06;86.24;101400.66;5021527;28;20052;-73
2022/11/06 00:56:37;;;;;;;8.20;3.67;;;;;;;8.04;86.23;101394.53;5025510;28;21957;-73
2022/11/06 00:59:10;;;;;;;9.10;3.60;;;;;;;8.00;86.39;101385.84;5026725;28;20034;-74
2022/11/06 01:01:42;;;;;;;7.60;3.60;;;;;;;8.02;86.32;101385.84;5036858;28;20050;-73
2022/11/06 01:04:17;;;;;;;9.30;4.07;;;;;;;8.01;86.51;101392.81;5027938;28;20040;-73
2022/11/06 01:06:49;;;;;;;9.98;3.40;;;;;;;7.99;86.83;101381.47;5032521;28;20104;-73
2022/11/06 01:09:20;;;;;;;8.25;3.22;;;;;;;8.00;87.01;101379.72;5025824;28;20058;-73
2022/11/06 01:11:55;;;;;;;11.07;3.75;;;;;;;8.01;86.71;101377.06;5028106;28;20050;-74
2022/11/06 01:14:41;;;;;;;8.63;3.70;;;;;;;8.03;86.76;101380.56;5026636;28;20038;-74
2022/11/06 01:17:09;;;;;;;6.38;3.10;;;;;;;8.03;86.81;101375.31;5027935;28;20046;-75
2022/11/06 01:19:36;;;;;;;5.88;3.25;;;;;;;8.02;86.75;101370.09;5026147;28;20045;-73
2022/11/06 01:22:03;;;;;;;6.90;3.17;;;;;;;7.98;86.52;101371.88;5035540;28;20045;-73
2022/11/06 01:24:30;;;;;;;7.43;3.55;;;;;;;7.96;86.56;101363.13;5035728;28;20815;-75
2022/11/06 01:26:58;;;;;;;7.57;3.65;;;;;;;7.92;86.72;101361.41;5029660;28;20133;-74
2022/11/06 01:29:45;;;;;;;10.75;3.58;;;;;;;7.87;86.66;101358.84;5030512;28;20129;-74
2022/11/06 01:32:12;;;;;;;11.50;3.75;;;;;;;7.86;86.86;101362.34;5036115;28;20049;-74
2022/11/06 01:34:39;;;;;;;8.02;3.38;;;;;;;7.84;86.75;101363.25;5023675;28;20089;-74
2022/11/06 01:37:07;;;;;;;7.22;3.30;;;;;;;7.82;86.83;101365.03;5025365;28;20042;-74
2022/11/06 01:39:40;;;;;;;8.30;3.37;;;;;;;7.81;87.08;101352.78;5030703;28;20124;-74
2022/11/06 01:42:12;;;;;;;8.35;3.17;;;;;;;7.82;87.14;101350.16;5039801;28;20141;-74
2022/11/06 01:44:42;;;;;;;6.40;3.05;;;;;;;7.89;87.78;101349.22;5017904;28;20046;-74
2022/11/06 01:47:28;;;;;;;7.47;2.95;;;;;;;8.01;87.83;101350.81;5026957;28;20494;-73
2022/11/06 01:50:05;;;;;;;8.75;3.03;;;;;;;8.07;87.96;101355.13;5026962;28;20042;-73
2022/11/06 01:52:34;;;;;;;8.38;3.08;;;;;;;8.14;87.37;101358.56;5022934;28;20118;-73
2022/11/06 01:55:35;;;;;;;10.75;3.00;;;;;;;8.17;87.05;101343.63;5032733;28;20494;-73
2022/11/06 01:58:05;;;;;;;5.90;2.80;;;;;;;8.24;87.37;101349.69;5023109;28;20050;-74
2022/11/06 02:00:32;;;;;;;7.07;2.90;;;;;;;8.32;87.27;101346.97;5030166;28;20043;-74
2022/11/06 02:03:00;;;;;;;8.93;2.70;;;;;;;8.35;86.95;101336.38;5028319;28;20038;-73
2022/11/06 02:05:28;;;;;;;8.05;2.83;;;;;;;8.35;86.73;101325.88;5036222;28;20492;-73
2022/11/06 02:07:59;;;;;;;9.48;2.88;;;;;;;8.36;86.47;101332.88;5031048;28;20090;-73
2022/11/06 02:10:27;;;;;;;10.90;2.70;;;;;;;8.35;86.46;101328.50;5020587;28;20500;-73
2022/11/06 02:13:16;;;;;;;9.32;2.80;;;;;;;8.37;86.35;101324.13;5021338;28;20519;-73
2022/11/06 02:16:40;;;;;;;5.78;2.30;;;;;;;8.38;86.35;101320.59;5024084;28;20042;-74
2022/11/06 02:19:35;;;;;;;8.23;2.45;;;;;;;8.35;86.25;101318.88;5023001;28;20053;-74
2022/11/06 02:22:08;;;;;;;6.35;3.10;;;;;;;8.33;86.25;101320.66;5029203;28;20042;-74
2022/11/06 02:24:49;;;;;;;8.63;2.65;;;;;;;8.31;86.04;101311.06;5022803;28;20068;-74
2022/11/06 02:27:23;;;;;;;9.68;2.15;;;;;;;8.30;86.36;101319.84;5032541;28;20042;-76
2022/11/06 02:30:02;;;;;;;12.07;2.60;;;;;;;8.29;86.35;101308.44;5026300;28;20104;-76
2022/11/06 02:32:50;;;;;;;5.50;1.90;;;;;;;8.32;86.59;101308.41;5040182;28;20048;-77
2022/11/06 02:35:33;;;;;;;6.68;2.10;;;;;;;8.35;86.50;101296.97;5024235;28;20081;-77
2022/11/06 02:38:11;;;;;;;6.80;2.40;;;;;;;8.42;86.40;101300.41;5023067;28;20533;-76
2022/11/06 02:40:48;;;;;;;8.77;2.08;;;;;;;8.45;86.72;101295.97;5022163;28;20047;-76
2022/11/06 02:43:19;;;;;;;6.80;2.20;;;;;;;8.51;86.28;101287.16;5020329;28;20435;-76
2022/11/06 02:46:11;;;;;;;7.63;2.00;;;;;;;8.58;86.34;101299.34;5029824;28;20100;-77
2022/11/06 02:48:47;;;;;;;6.80;2.03;;;;;;;8.61;86.21;101296.66;5016836;28;20101;-76
2022/11/06 02:51:22;;;;;;;7.00;2.47;;;;;;;8.64;86.07;101291.34;5031510;28;20048;-75
2022/11/06 02:53:53;;;;;;;6.68;1.90;;;;;;;8.67;85.83;101295.69;5024142;28;20435;-76
2022/11/06 02:56:27;;;;;;;4.75;2.08;;;;;;;8.69;86.24;101302.69;5030245;28;20038;-76
2022/11/06 02:59:05;;;;;;;10.50;2.25;;;;;;;8.73;85.84;101297.34;5033919;28;20044;-75
2022/11/06 03:01:43;;;;;;;4.20;1.65;;;;;;;8.72;85.79;101283.34;5030532;28;20053;-76
2022/11/06 03:04:21;;;;;;;4.93;1.80;;;;;;;8.73;85.58;101292.09;5031084;28;20042;-76
2022/11/06 03:07:08;;;;;;;7.45;1.77;;;;;;;8.73;85.54;101294.72;5033857;28;20045;-76
2022/11/06 03:09:35;;;;;;;10.55;1.92;;;;;;;8.74;85.56;101289.47;5030988;28;20042;-74
2022/11/06 03:12:20;;;;;;;11.23;1.95;;;;;;;8.76;85.48;101290.28;5019820;28;20113;-73
2022/11/06 03:15:21;;;;;;;6.90;1.63;;;;;;;8.81;85.26;101280.59;5025896;28;20516;-73
2022/11/06 03:18:11;;;;;;;9.35;2.00;;;;;;;8.85;85.60;101286.66;5027331;28;20483;-72
2022/11/06 03:20:55;;;;;;;6.25;1.90;;;;;;;8.86;85.45;101277.88;5034916;28;20065;-72
2022/11/06 03:23:39;;;;;;;4.45;1.63;;;;;;;8.91;85.29;101286.53;5031007;28;20045;-72
2022/11/06 03:26:18;;;;;;;6.95;1.85;;;;;;;8.94;85.34;101288.28;5029807;28;20049;-72
2022/11/06 03:29:09;;;;;;;10.23;2.00;;;;;;;8.99;85.40;101299.56;5030345;28;20551;-72
2022/11/06 03:31:49;;;;;;;10.98;2.88;;;;;;;9.04;85.33;101297.75;5033542;28;20117;-73
2022/11/06 03:34:49;;;;;;;11.00;1.75;;;;;;;9.08;85.13;101299.41;5031176;28;20042;-73
2022/11/06 03:37:27;;;;;;;7.47;2.10;;;;;;;9.11;85.12;101299.38;5026177;28;20878;-72
2022/11/06 03:40:01;;;;;;;9.38;1.67;;;;;;;9.15;85.11;101287.03;5027479;28;20534;-73
2022/11/06 03:42:29;;;;;;;6.53;1.50;;;;;;;9.15;85.17;101281.78;5022122;28;20465;-73
2022/11/06 03:45:06;;;;;;;10.95;2.08;;;;;;;9.22;85.18;101279.91;5030791;28;20479;-71
2022/11/06 03:47:42;;;;;;;5.03;1.73;;;;;;;9.21;84.79;101270.28;5024040;28;20494;-75
2022/11/06 03:50:19;;;;;;;6.95;1.90;;;;;;;9.19;84.84;101254.53;5033293;28;20093;-75
2022/11/06 03:52:57;;;;;;;6.18;1.80;;;;;;;9.20;84.64;101263.28;5030998;28;20068;-75
2022/11/06 03:55:35;;;;;;;6.45;1.60;;;;;;;9.15;84.50;101258.09;5028911;28;20045;-76
2022/11/06 03:58:20;;;;;;;9.43;1.83;;;;;;;9.14;84.28;101254.63;5021851;28;20050;-76
2022/11/06 04:00:51;;;;;;;9.25;2.17;;;;;;;9.11;84.37;101256.41;5023836;28;20054;-75
2022/11/06 04:03:32;;;;;;;4.70;1.63;;;;;;;9.07;84.55;101258.22;5021881;28;20046;-75
2022/11/06 04:06:15;;;;;;;6.53;2.13;;;;;;;9.09;84.50;101248.56;5041200;28;20038;-76
2022/11/06 04:14:27;;;;;;;7.30;2.00;;;;;;;9.06;84.89;101242.50;5028557;28;20038;-75
2022/11/06 04:17:02;;;;;;;7.10;1.73;;;;;;;9.05;84.63;101238.13;5026946;28;20039;-75
2022/11/06 04:19:29;;;;;;;9.82;1.73;;;;;;;9.06;84.83;101237.22;5027928;28;20042;-73
2022/11/06 04:22:21;;;;;;;9.15;1.92;;;;;;;9.08;84.91;101228.41;5030615;28;20420;-74
2022/11/06 04:28:34;;;;;;;8.25;2.15;;;;;;;9.10;84.99;101224.00;5019680;28;20770;-75
2022/11/06 04:31:48;;;;;;;6.13;1.83;;;;;;;9.10;84.84;101213.47;5038929;28;20045;-75
2022/11/06 04:34:41;;;;;;;6.13;1.77;;;;;;;9.09;84.96;101226.66;5028489;28;20108;-75
2022/11/06 04:37:45;;;;;;;5.40;1.65;;;;;;;9.08;84.83;101219.66;5017091;28;20832;-75
2022/11/06 04:40:50;;;;;;;5.68;1.85;;;;;;;9.08;85.18;101207.38;5021804;28;20042;-75
2022/11/06 04:43:53;;;;;;;8.75;2.03;;;;;;;9.10;85.02;101202.09;5028659;28;20433;-74
2022/11/06 04:46:32;;;;;;;4.55;1.65;;;;;;;9.14;84.90;101203.75;5026902;28;20799;-75
2022/11/06 04:49:04;;;;;;;8.45;1.80;;;;;;;9.13;85.13;101194.13;5028787;28;20085;-75
2022/11/06 04:51:38;;;;;;;5.80;1.60;;;;;;;9.16;84.85;101189.69;5025197;28;20041;-73
2022/11/06 04:54:10;;;;;;;7.75;1.92;;;;;;;9.17;84.89;101180.03;5030092;28;20428;-73
2022/11/06 04:56:37;;;;;;;8.80;2.10;;;;;;;9.20;85.12;101177.34;5026170;28;20042;-74
2022/11/06 04:59:15;;;;;;;6.72;1.60;;;;;;;9.20;85.26;101169.47;5027728;28;20046;-71
2022/11/06 05:01:44;;;;;;;4.57;1.73;;;;;;;9.22;85.05;101174.69;5029647;28;20042;-72
2022/11/06 05:04:12;;;;;;;5.10;1.58;;;;;;;9.26;85.04;101189.53;5029034;28;20049;-71
2022/11/06 05:06:39;;;;;;;10.70;2.10;;;;;;;9.27;84.72;101184.22;5035488;28;20148;-71
2022/11/06 05:09:06;;;;;;;10.38;1.80;;;;;;;9.28;84.81;101185.09;5025532;28;20085;-71
2022/11/06 05:11:34;;;;;;;9.70;1.80;;;;;;;9.30;85.00;101184.19;5027145;28;20531;-72
2022/11/06 05:14:01;;;;;;;4.28;1.50;;;;;;;9.31;84.79;101183.25;5025715;28;20552;-72
2022/11/06 05:16:28;;;;;;;6.95;1.77;;;;;;;9.33;84.77;101185.88;5012992;28;20481;-72
2022/11/06 05:18:55;;;;;;;4.78;1.67;;;;;;;9.33;84.75;101183.25;5023628;28;20037;-73
2022/11/06 05:24:08;;;;;;;5.05;1.60;;;;;;;9.31;84.74;101191.16;5032462;28;20041;-75
2022/11/06 05:26:36;;;;;;;6.43;1.45;;;;;;;9.31;84.64;101183.25;5025429;28;20141;-74
2022/11/06 05:29:03;;;;;;;5.68;1.77;;;;;;;9.32;84.67;101182.34;5030461;28;20054;-75
2022/11/06 05:31:30;;;;;;;11.00;1.70;;;;;;;9.31;84.62;101180.63;5014985;28;20140;-75
2022/11/06 05:33:57;;;;;;;13.05;2.20;;;;;;;9.30;84.43;101173.66;5029484;28;20045;-77
2022/11/06 05:36:25;;;;;;;7.35;1.98;;;;;;;9.26;84.26;101177.22;5029128;28;20555;-77
2022/11/06 05:38:52;;;;;;;4.60;1.77;;;;;;;9.18;84.29;101168.63;5024796;28;20088;-77
2022/11/06 05:41:19;;;;;;;9.63;1.83;;;;;;;9.12;84.35;101173.97;5028960;28;20046;-77
2022/11/06 05:43:46;;;;;;;4.68;2.00;;;;;;;9.04;84.54;101166.25;5017949;28;20756;-77
2022/11/06 05:46:13;;;;;;;6.22;1.88;;;;;;;8.96;84.53;101163.75;5019600;28;20750;-78
2022/11/06 05:49:00;;;;;;;5.53;1.98;;;;;;;8.90;84.81;101163.88;5027544;28;20771;-77
2022/11/06 05:51:27;;;;;;;5.88;1.88;;;;;;;8.85;84.95;101160.47;5015776;28;20034;-77
2022/11/06 05:53:54;;;;;;;5.63;2.08;;;;;;;8.80;85.06;101163.16;5027304;28;20066;-77
2022/11/06 05:56:21;;;;;;;7.72;1.60;;;;;;;8.77;85.32;101159.72;5024956;28;20054;-77
2022/11/06 05:58:48;;;;;;;5.20;1.70;;;;;;;8.73;85.39;101147.53;5031107;28;20034;-77
2022/11/06 06:01:15;;;;;;;6.45;2.05;;;;;;;8.66;85.69;101139.75;5022196;28;20092;-76
2022/11/06 06:03:42;;;;;;;6.75;1.95;;;;;;;8.60;85.62;101139.84;5015436;28;20126;-76
2022/11/06 06:06:09;;;;;;;6.82;2.03;;;;;;;8.60;85.95;101144.25;5027629;28;20046;-78
2022/11/06 06:08:36;;;;;;;6.80;2.25;;;;;;;8.56;86.19;101143.44;5032089;28;20054;-77
2022/11/06 06:11:06;;;;;;;4.65;1.77;;;;;;;8.55;86.29;101146.97;5020090;28;20049;-77
2022/11/06 06:13:36;;;;;;;8.65;1.98;;;;;;;8.58;86.75;101141.66;5027593;28;20625;-77
2022/11/06 06:16:05;;;;;;;7.22;1.88;;;;;;;8.63;86.54;101141.59;5029417;28;20048;-75
2022/11/06 06:18:33;;;;;;;6.82;1.83;;;;;;;8.68;86.89;101140.59;5021164;28;20471;-75
2022/11/06 06:21:00;;;;;;;4.00;1.80;;;;;;;8.77;86.79;101138.69;5023979;28;20053;-74
2022/11/06 06:23:27;;;;;;;8.48;2.13;;;;;;;8.81;86.88;101137.72;5026051;28;20140;-75
2022/11/06 06:25:55;;;;;;;5.13;1.88;;;;;;;8.86;87.02;101138.53;5030618;28;20045;-74
2022/11/06 06:28:22;;;;;;;5.15;1.80;;;;;;;8.92;86.72;101146.28;5021800;28;20053;-74
2022/11/06 06:30:50;;;;;;;8.75;2.25;;;;;;;8.96;86.95;101152.34;5025067;28;20042;-75
2022/11/06 06:33:23;;;;;;;8.95;2.00;;;;;;;9.00;86.64;101146.16;5023610;28;20049;-74
2022/11/06 06:35:50;;;;;;;8.40;1.98;;;;;;;9.05;86.78;101151.34;5025562;28;20046;-75
2022/11/06 06:38:17;;;;;;;8.77;2.10;;;;;;;9.14;86.53;101145.88;5028511;28;20041;-75
2022/11/06 06:40:45;;;;;;;9.02;2.03;;;;;;;9.19;86.46;101140.53;5030735;28;20050;-74
2022/11/06 06:43:14;;;;;;;4.32;1.70;;;;;;;9.25;86.35;101143.06;5032207;28;20124;-73
2022/11/06 06:45:41;;;;;;;5.45;1.50;;;;;;;9.30;86.48;101142.09;5025369;28;20523;-75
2022/11/06 06:48:08;;;;;;;7.22;1.85;;;;;;;9.35;86.02;101135.84;5031182;28;20046;-74
2022/11/06 06:50:37;;;;;;;9.82;2.22;;;;;;;9.38;85.60;101135.78;5032360;28;20088;-74
2022/11/06 06:53:04;;;;;;;6.97;1.70;;;;;;;9.42;85.73;101146.22;5024825;28;20475;-73
2022/11/06 06:55:31;;;;;;;7.95;1.80;;;;;;;9.46;85.38;101144.38;5029020;28;20105;-73
2022/11/06 06:57:59;;;;;;;8.30;2.20;;;;;;;9.51;85.12;101154.81;5030852;28;20042;-70
2022/11/06 07:00:28;;;;;;;10.70;1.85;;;;;;;9.54;85.03;101155.59;5026698;28;20042;-72
2022/11/06 07:02:55;;;;;;;8.73;2.33;;;;;;;9.59;85.10;101156.41;5029024;28;20127;-71
2022/11/06 07:05:23;;;;;;;7.43;2.10;;;;;;;9.63;84.80;101150.16;5030187;28;20109;-73
2022/11/06 07:07:50;;;;;;;4.40;1.60;;;;;;;9.70;84.47;101147.41;5021969;28;20054;-73
2022/11/06 07:10:17;;;;;;;5.88;1.50;;;;;;;9.75;84.17;101135.88;5029273;28;20042;-70
2022/11/06 07:12:44;;;;;;;3.78;1.60;;;;;;;9.81;83.98;101139.25;5033007;28;20388;-70
2022/11/06 07:15:11;;;;;;;5.28;1.60;;;;;;;9.85;83.76;101135.66;5028040;28;20049;-70
2022/11/06 07:17:39;;;;;;;5.82;1.77;;;;;;;9.88;83.52;101138.22;5019574;28;20489;-73
2022/11/06 07:20:08;;;;;;;4.05;1.50;;;;;;;9.89;83.57;101130.28;5027147;28;20056;-74
2022/11/06 07:22:36;;;;;;;5.97;1.52;;;;;;;9.98;83.74;101133.59;5027514;28;20045;-74
2022/11/06 07:25:05;;;;;;;9.15;1.58;;;;;;;10.10;83.12;101139.44;5027701;28;20501;-73
2022/11/06 07:27:35;;;;;;;3.00;1.33;;;;;;;10.23;83.06;101131.25;5026817;28;20109;-74
2022/11/06 07:30:03;;;;;;;8.35;1.40;;;;;;;10.34;82.72;101125.72;5026009;28;20104;-73
2022/11/06 07:32:31;;;;;;;3.90;1.40;;;;;;;10.47;82.28;101121.91;5028370;28;20042;-74
2022/11/06 07:34:59;;;;;;;5.43;1.50;;;;;;;10.60;81.70;101119.81;5030309;28;20077;-73
2022/11/06 07:37:26;;;;;;;6.63;1.50;;;;;;;10.66;81.57;101132.84;5029240;28;20184;-74
2022/11/06 07:39:53;;;;;;;5.30;1.60;;;;;;;10.74;81.67;101127.38;5027114;28;20042;-73
2022/11/06 07:42:20;;;;;;;7.53;1.52;;;;;;;10.86;81.39;101123.56;5024746;28;20045;-72
2022/11/06 07:45:01;;;;;;;4.80;1.33;;;;;;;11.00;80.61;101136.38;5026738;28;20185;-73
2022/11/06 07:47:29;;;;;;;4.30;1.42;;;;;;;11.09;80.46;101128.19;5026169;28;20141;-72
2022/11/06 07:49:57;;;;;;;4.22;1.30;;;;;;;11.18;79.44;101132.34;5029336;28;20046;-74
2022/11/06 07:52:24;;;;;;;8.77;1.60;;;;;;;11.18;78.81;101124.44;5031257;28;20740;-72
2022/11/06 07:54:51;;;;;;;4.13;1.10;;;;;;;11.17;78.31;101126.19;5035793;28;20084;-71
2022/11/06 07:57:19;;;;;;;6.80;1.40;;;;;;;11.14;77.99;101122.78;5030259;28;20097;-72
2022/11/06 07:59:46;;;;;;;5.07;1.40;;;;;;;11.11;78.24;101126.38;5030059;28;20042;-71
2022/11/06 08:02:13;;;;;;;8.77;1.50;;;;;;;11.14;78.41;101125.41;5028755;28;20042;-72
2022/11/06 08:04:40;;;;;;;4.07;1.58;;;;;;;11.15;78.60;101120.09;5028342;28;20049;-71
2022/11/06 08:07:07;;;;;;;5.15;1.50;;;;;;;11.19;77.92;101108.56;5031506;28;20038;-72
2022/11/06 08:09:34;;;;;;;6.47;1.50;;;;;;;11.22;77.60;101104.94;5025540;28;20096;-73
2022/11/06 08:12:01;;;;;;;9.60;2.20;;;;;;;11.28;77.29;101114.47;5029638;28;20038;-73
2022/11/06 08:14:29;;;;;;;7.70;1.50;;;;;;;11.34;77.25;101109.03;5033221;28;20066;-73
2022/11/06 08:16:57;;;;;;;5.25;1.30;;;;;;;11.40;77.42;101092.13;5023466;28;20049;-73
2022/11/06 08:19:24;;;;;;;7.05;1.50;;;;;;;11.43;76.85;101097.31;5029869;28;20038;-75
2022/11/06 08:21:51;;;;;;;7.10;1.60;;;;;;;11.37;76.73;101105.44;5026262;28;20046;-74
2022/11/06 08:24:18;;;;;;;5.82;1.38;;;;;;;11.27;76.79;101103.06;5027112;28;20038;-76
2022/11/06 08:26:51;;;;;;;4.53;1.60;;;;;;;11.19;77.06;101098.00;5028804;28;20038;-76
2022/11/06 08:29:20;;;;;;;8.05;2.17;;;;;;;11.16;77.31;101110.41;5030320;28;20048;-75
2022/11/06 08:31:47;;;;;;;5.18;1.58;;;;;;;11.16;77.23;101106.00;5026432;28;20111;-74
2022/11/06 08:34:14;;;;;;;7.93;1.80;;;;;;;11.19;77.57;101098.00;5017146;28;20041;-74
2022/11/06 08:36:44;;;;;;;5.57;1.88;;;;;;;11.26;77.51;101095.16;5032549;28;20073;-74
2022/11/06 08:39:15;;;;;;;4.85;1.60;;;;;;;11.33;77.13;101092.31;5026998;28;20046;-75
2022/11/06 08:41:44;;;;;;;7.07;1.60;;;;;;;11.35;76.82;101092.25;5035094;28;20045;-75
2022/11/06 08:44:11;;;;;;;8.48;1.80;;;;;;;11.38;76.84;101083.41;5029948;28;20087;-75
2022/11/06 08:46:38;;;;;;;8.32;1.50;;;;;;;11.43;77.16;101082.34;5020163;28;20058;-75
2022/11/06 08:49:07;;;;;;;8.30;1.58;;;;;;;11.51;77.41;101074.19;5030907;28;20054;-74
2022/11/06 08:51:35;;;;;;;8.35;1.70;;;;;;;11.63;76.27;101075.59;5031482;28;20069;-75
2022/11/06 08:54:10;;;;;;;;;;;;;;;11.63;76.39;101075.59;5015686;28;20120;-75
2022/11/06 08:56:41;;;;;;;5.97;1.67;;;;;;;11.64;76.08;101070.25;5028696;28;20021;-73
2022/11/06 08:59:11;;;;;;;5.10;1.60;;;;;;;11.68;75.99;101067.53;5035242;28;20050;-72
2022/11/06 09:02:20;;;;;;;7.38;1.85;;;;;;;11.72;75.70;101066.50;5011260;28;20057;-73
2022/11/06 09:04:58;;;;;;;8.95;1.70;;;;;;;11.69;75.90;101061.34;5024886;28;20058;-72
2022/11/06 09:07:25;;;;;;;6.95;2.58;;;;;;;11.71;75.79;101052.47;5014876;28;20038;-73
2022/11/06 09:10:01;;;;;;;6.97;2.63;;;;;;;11.72;75.13;101056.81;5044246;28;20118;-70
2022/11/06 09:12:29;;;;;;;8.18;2.30;;;;;;;11.68;75.40;101059.63;5027572;28;20058;-69
2022/11/06 09:14:58;;;;;;;9.32;3.50;;;;;;;11.68;75.36;101044.63;5023948;28;20041;-70
2022/11/06 09:17:25;;;;;;;8.82;3.50;;;;;;;11.68;75.17;101044.63;5014323;28;20482;-70
2022/11/06 09:19:55;;;;;;;6.45;2.90;;;;;;;11.68;75.45;101049.91;5030408;28;20105;-70
2022/11/06 09:22:38;;;;;;;9.40;3.10;;;;;;;11.72;75.36;101045.38;5025921;28;20450;-70
2022/11/06 09:25:08;;;;;;;9.17;3.67;;;;;;;11.71;75.17;101036.59;5012527;28;20465;-71
2022/11/06 09:27:48;;;;;;;6.93;2.65;;;;;;;11.68;75.24;101036.69;5002211;28;20058;-71
2022/11/06 09:30:24;;;;;;;6.90;1.98;;;;;;;11.59;75.18;101037.00;5017554;28;20042;-70
2022/11/06 09:33:03;;;;;;;6.00;1.73;;;;;;;11.54;75.18;101023.09;5031505;28;20128;-70
2022/11/06 09:35:38;;;;;;;5.15;1.88;;;;;;;11.50;75.17;101019.66;5041342;28;20049;-70
2022/11/06 09:38:10;;;;;;;6.53;2.33;;;;;;;11.48;75.38;101011.78;5050646;28;20052;-70
2022/11/06 09:40:56;;;;;;;6.72;2.25;;;;;;;11.53;75.34;101016.06;5037663;28;20054;-70
2022/11/06 09:43:54;;;;;;;7.75;2.20;;;;;;;11.53;75.18;101009.00;5030924;28;20436;-70
2022/11/06 09:46:41;;;;;;;9.35;2.53;;;;;;;11.54;75.49;101007.25;5030305;28;20038;-70
2022/11/06 09:49:40;;;;;;;6.28;2.00;;;;;;;11.62;75.28;100992.88;5040862;28;20041;-70
2022/11/06 09:52:23;;;;;;;5.60;2.28;;;;;;;11.72;75.17;100996.09;5013403;28;20049;-70
2022/11/06 09:55:20;;;;;;;8.73;3.60;;;;;;;11.87;74.45;101002.63;5027997;28;20483;-70
2022/11/06 09:57:56;;;;;;;6.88;2.33;;;;;;;11.90;74.74;100994.63;5017813;28;20458;-71
2022/11/06 10:00:24;;;;;;;5.47;1.83;;;;;;;11.95;73.75;100992.66;5020431;28;20049;-70
2022/11/06 10:03:01;;;;;;;7.82;2.40;;;;;;;11.96;73.76;100996.16;5034088;28;20053;-72
2022/11/06 10:05:35;;;;;;;9.07;1.90;;;;;;;12.00;73.84;100995.19;5031909;28;20050;-72
2022/11/06 10:08:22;;;;;;;7.85;2.42;;;;;;;12.07;73.67;101001.13;5010818;28;20469;-72
2022/11/06 10:11:29;;;;;;;7.43;1.63;;;;;;;12.08;73.28;100995.78;5026335;28;20490;-72
2022/11/06 10:14:26;;;;;;;5.22;1.50;;;;;;;12.09;73.60;100992.22;5023535;28;20045;-71
2022/11/06 10:17:12;;;;;;;4.50;1.40;;;;;;;12.17;72.83;100985.81;5027769;28;20042;-72
2022/11/06 10:20:18;;;;;;;4.00;1.48;;;;;;;12.20;72.99;100977.78;5033844;28;20037;-72
2022/11/06 10:23:18;;;;;;;10.13;2.17;;;;;;;12.33;72.71;100968.50;5020433;28;20061;-72
2022/11/06 10:26:22;;;;;;;5.88;2.03;;;;;;;12.43;71.75;100974.31;5044013;28;20088;-71
2022/11/06 10:29:25;;;;;;;11.67;1.93;;;;;;;12.57;72.01;100987.03;5024509;28;20570;-72
2022/11/06 10:32:34;;;;;;;5.43;1.40;;;;;;;12.66;71.66;100972.63;5024392;28;20065;-73
2022/11/06 10:35:21;;;;;;;5.28;1.63;;;;;;;12.66;71.65;100968.22;5026582;28;20070;-72
2022/11/06 10:38:04;;;;;;;5.13;1.40;;;;;;;12.70;71.21;100966.31;5023219;28;20089;-71
2022/11/06 10:40:33;;;;;;;4.22;1.20;;;;;;;12.68;71.07;100961.06;5028259;28;20404;-72
2022/11/06 10:43:28;;;;;;;5.28;1.25;;;;;;;12.71;70.68;100960.97;5033929;28;20045;-73
2022/11/06 10:46:27;;;;;;;6.10;1.13;;;;;;;12.73;70.78;100951.19;5036891;28;20045;-72
2022/11/06 10:49:03;;;;;;;6.28;1.40;;;;;;;12.79;71.30;100949.22;5018041;28;20061;-72
2022/11/06 10:52:00;;;;;;;6.05;1.20;;;;;;;12.86;70.67;100956.88;5025155;28;20124;-72
2022/11/06 10:54:55;;;;;;;6.00;1.50;;;;;;;12.89;69.96;100954.13;5013993;28;20481;-71
2022/11/06 10:57:50;;;;;;;7.90;1.83;;;;;;;12.87;69.82;100933.94;5028030;28;20045;-70
2022/11/06 11:00:17;;;;;;;6.53;1.67;;;;;;;12.82;69.47;100934.09;5035593;28;20151;-70
2022/11/06 11:02:54;;;;;;;3.88;1.25;;;;;;;12.83;69.29;100921.75;5024994;28;20423;-71
2022/11/06 11:05:25;;;;;;;5.05;1.10;;;;;;;12.81;69.17;100915.63;5032819;28;20046;-70
2022/11/06 11:07:53;;;;;;;4.38;1.25;;;;;;;12.87;68.89;100904.84;5030762;28;20069;-71
2022/11/06 11:10:35;;;;;;;3.97;1.20;;;;;;;12.91;68.68;100908.22;5031724;28;20153;-72
2022/11/06 11:13:05;;;;;;;5.55;1.10;;;;;;;12.92;69.07;100900.22;5028807;28;20046;-71
2022/11/06 11:15:47;;;;;;;6.47;1.52;;;;;;;12.95;68.48;100897.47;5033898;28;20069;-72
2022/11/06 11:18:32;;;;;;;4.35;1.00;;;;;;;12.95;68.62;100896.56;5028939;28;20042;-71
2022/11/06 11:21:17;;;;;;;7.30;1.33;;;;;;;12.97;68.73;100878.88;5030183;28;20046;-71
2022/11/06 11:24:04;;;;;;;6.40;1.48;;;;;;;13.01;68.41;100877.84;5030817;28;20042;-71
2022/11/06 11:26:42;;;;;;;6.85;1.35;;;;;;;13.02;67.95;100877.75;5018428;28;20042;-70
2022/11/06 11:29:21;;;;;;;6.50;1.33;;;;;;;13.04;67.81;100875.03;5035228;28;20046;-71
2022/11/06 11:31:58;;;;;;;4.57;1.40;;;;;;;13.02;67.54;100861.88;5034677;28;20050;-70
2022/11/06 11:34:30;;;;;;;5.78;1.30;;;;;;;13.02;67.98;100859.22;5031859;28;20042;-72
2022/11/06 11:37:04;;;;;;;4.25;1.00;;;;;;;13.08;68.24;100863.41;5042359;28;20046;-69
2022/11/06 11:39:43;;;;;;;5.45;1.48;;;;;;;13.11;67.76;100865.94;5032486;28;20049;-70
2022/11/06 11:42:28;;;;;;;3.80;1.13;;;;;;;13.14;67.40;100852.56;5039914;28;20121;-69
2022/11/06 11:45:25;;;;;;;4.43;0.88;;;;;;;13.15;66.63;100843.72;5012441;28;20861;-69
2022/11/06 11:48:12;;;;;;;4.95;0.90;;;;;;;13.14;66.60;100836.69;5011406;28;20046;-69
2022/11/06 11:50:40;;;;;;;3.90;0.95;;;;;;;13.12;67.13;100824.44;5025016;28;20152;-70
2022/11/06 11:53:19;;;;;;;4.32;1.00;;;;;;;13.14;66.86;100820.81;5022339;28;20073;-70
2022/11/06 11:55:51;;;;;;;4.00;1.10;;;;;;;13.15;67.01;100819.88;5029346;28;20041;-70
2022/11/06 11:58:26;;;;;;;5.57;1.02;;;;;;;13.17;67.02;100802.16;5027981;28;20038;-70
2022/11/06 12:01:01;;;;;;;2.55;0.88;;;;;;;13.21;66.76;100792.31;5023717;28;20594;-71
2022/11/06 12:03:40;;;;;;;5.53;1.00;;;;;;;13.19;67.38;100789.72;5028885;28;20137;-70
2022/11/06 12:06:14;;;;;;;10.10;1.33;;;;;;;13.22;67.00;100794.03;5026501;28;20046;-71
2022/11/06 12:08:52;;;;;;;7.22;1.20;;;;;;;13.22;66.95;100780.78;5030254;28;20061;-70
2022/11/06 12:11:26;;;;;;;5.15;1.40;;;;;;;13.23;67.24;100786.97;5024518;28;20041;-70
2022/11/06 12:14:24;;;;;;;9.35;1.67;;;;;;;13.24;66.43;100786.00;5029035;28;20047;-70
2022/11/06 12:17:03;;;;;;;10.02;1.35;;;;;;;13.24;66.93;100786.00;5029237;28;20034;-70
2022/11/06 12:19:36;;;;;;;13.98;1.90;;;;;;;13.25;66.83;100779.78;5019344;28;20049;-70